Time;durP1;ratioP1;P1;durP2;ratioP2;P2;SDS_P1;SDS_P2;PMS_P1;PMS_P2;Temp;Humidity;BMP_temperature;BMP_pressure;BME280_temperature;BME280_humidity;BME280_pressure;Samples;Min_cycle;Max_cycle;Signal;HPM_P1;HPM_P2
2023/01/12 00:02:09;;;;;;;12.60;3.25;;;7.80;99.90;;;;;;5071114;28;20042;-72
2023/01/12 00:04:37;;;;;;;11.10;2.90;;;7.80;99.90;;;;;;5085904;28;20024;-72
2023/01/12 00:07:07;;;;;;;16.40;2.92;;;7.80;99.90;;;;;;5085736;28;20036;-72
2023/01/12 00:09:34;;;;;;;9.05;2.88;;;7.80;99.90;;;;;;5109554;28;20028;-74
2023/01/12 00:12:05;;;;;;;16.30;3.15;;;7.80;99.90;;;;;;5087902;28;20039;-73
2023/01/12 00:14:35;;;;;;;20.50;3.72;;;7.80;99.90;;;;;;5106266;28;20054;-72
2023/01/12 00:17:01;;;;;;;12.25;2.90;;;7.90;99.90;;;;;;5088687;28;20419;-72
2023/01/12 00:19:27;;;;;;;11.07;2.78;;;7.80;99.90;;;;;;5091038;28;21001;-72
2023/01/12 00:22:13;;;;;;;9.93;2.55;;;7.90;99.90;;;;;;5083565;28;20043;-72
2023/01/12 00:24:42;;;;;;;10.05;2.53;;;7.90;99.90;;;;;;5109046;28;20048;-72
2023/01/12 00:27:14;;;;;;;11.82;3.30;;;7.80;99.90;;;;;;5107008;28;20032;-72
2023/01/12 00:29:40;;;;;;;15.55;3.25;;;7.80;99.90;;;;;;5090650;28;20471;-72
2023/01/12 00:32:06;;;;;;;16.90;3.13;;;7.80;99.90;;;;;;5086031;28;20028;-72
2023/01/12 00:34:32;;;;;;;16.75;3.38;;;7.80;99.90;;;;;;5108867;28;20491;-72
2023/01/12 00:37:02;;;;;;;10.98;2.95;;;7.80;99.90;;;;;;5066124;28;20024;-72
2023/01/12 00:39:28;;;;;;;14.53;3.43;;;7.80;99.90;;;;;;5106029;28;20030;-72
2023/01/12 00:47:22;;;;;;;14.45;3.10;;;7.80;99.90;;;;;;5108038;28;20771;-72
2023/01/12 00:49:48;;;;;;;9.75;3.08;;;7.80;99.90;;;;;;5104678;28;20035;-72
2023/01/12 00:52:17;;;;;;;11.63;2.58;;;7.80;99.90;;;;;;5088102;28;20050;-72
2023/01/12 00:54:43;;;;;;;13.98;2.85;;;7.80;99.90;;;;;;5086502;28;20027;-72
2023/01/12 00:57:12;;;;;;;9.48;2.97;;;7.80;99.90;;;;;;5110876;28;20031;-73
2023/01/12 00:59:38;;;;;;;12.68;3.22;;;7.80;99.90;;;;;;5096735;28;20031;-72
2023/01/12 01:02:04;;;;;;;12.40;3.30;;;7.90;99.90;;;;;;5089535;28;20016;-72
2023/01/12 01:04:30;;;;;;;14.18;3.00;;;7.80;99.90;;;;;;5087159;28;20042;-72
2023/01/12 01:06:56;;;;;;;14.63;3.00;;;7.80;99.90;;;;;;5084861;28;20026;-71
2023/01/12 01:09:22;;;;;;;14.85;3.65;;;7.90;99.90;;;;;;5086546;28;20036;-72
2023/01/12 01:11:48;;;;;;;16.65;3.50;;;7.90;99.90;;;;;;5069761;28;20042;-71
2023/01/12 01:14:14;;;;;;;14.43;3.13;;;7.90;99.90;;;;;;5087640;28;20499;-71
2023/01/12 01:16:40;;;;;;;15.98;3.28;;;7.90;99.90;;;;;;5089568;28;20066;-72
2023/01/12 01:19:05;;;;;;;8.70;3.17;;;7.90;99.90;;;;;;5105204;28;20040;-71
2023/01/12 01:21:33;;;;;;;15.98;4.35;;;7.90;99.90;;;;;;5106727;28;20024;-70
2023/01/12 01:23:59;;;;;;;9.43;2.83;;;7.90;99.90;;;;;;5107242;28;20511;-71
2023/01/12 01:26:24;;;;;;;13.02;3.20;;;7.90;99.90;;;;;;5089221;28;20030;-71
2023/01/12 01:28:50;;;;;;;10.90;2.75;;;7.90;99.90;;;;;;5086500;28;20043;-71
2023/01/12 01:31:19;;;;;;;8.90;2.85;;;7.90;99.90;;;;;;5102989;28;21259;-71
2023/01/12 01:33:45;;;;;;;10.10;2.28;;;7.90;99.90;;;;;;5089212;28;20683;-71
2023/01/12 01:36:11;;;;;;;6.90;2.45;;;7.90;99.90;;;;;;5087440;28;20401;-71
2023/01/12 01:38:38;;;;;;;12.18;2.65;;;8.00;99.90;;;;;;5103258;28;20024;-71
2023/01/12 01:41:05;;;;;;;9.32;2.22;;;8.00;99.90;;;;;;5088854;28;20020;-72
2023/01/12 01:43:56;;;;;;;10.15;2.65;;;8.00;99.90;;;;;;5104080;28;20091;-72
2023/01/12 01:46:24;;;;;;;14.35;3.33;;;8.10;99.90;;;;;;5087462;28;20032;-72
2023/01/12 01:48:50;;;;;;;9.55;2.40;;;8.10;99.90;;;;;;5087448;28;20174;-72
2023/01/12 01:51:16;;;;;;;13.50;2.70;;;8.10;99.90;;;;;;5086931;28;20063;-72
2023/01/12 01:53:45;;;;;;;13.80;2.63;;;8.10;99.90;;;;;;5104876;28;20051;-72
2023/01/12 01:56:17;;;;;;;12.52;2.53;;;8.10;99.90;;;;;;5106889;28;20040;-72
2023/01/12 01:58:49;;;;;;;14.18;2.08;;;8.10;99.90;;;;;;5066325;28;20016;-72
2023/01/12 02:01:14;;;;;;;5.70;1.73;;;8.10;99.90;;;;;;5106000;28;20491;-72
2023/01/12 02:03:41;;;;;;;8.80;2.28;;;8.20;99.90;;;;;;5106134;28;20027;-72
2023/01/12 02:06:07;;;;;;;8.48;2.25;;;8.20;99.90;;;;;;5107036;28;20028;-72
2023/01/12 02:08:52;;;;;;;11.32;2.38;;;8.20;99.90;;;;;;5104537;28;20020;-72
2023/01/12 02:17:10;;;;;;;6.35;2.00;;;8.20;99.90;;;;;;5102447;28;20028;-72
2023/01/12 02:19:56;;;;;;;8.98;2.15;;;8.20;99.90;;;;;;5104665;28;20515;-72
2023/01/12 02:22:59;;;;;;;7.70;2.05;;;8.20;99.90;;;;;;5087497;28;20024;-72
2023/01/12 02:25:44;;;;;;;9.60;2.45;;;8.20;99.90;;;;;;5097293;28;20024;-72
2023/01/12 02:28:34;;;;;;;12.65;3.05;;;8.20;99.90;;;;;;5087027;28;20127;-72
2023/01/12 02:31:15;;;;;;;11.65;2.97;;;8.30;99.90;;;;;;5103966;28;20051;-72
2023/01/12 02:34:02;;;;;;;7.68;2.40;;;8.30;99.90;;;;;;5103949;28;20032;-72
2023/01/12 02:36:28;;;;;;;11.35;2.17;;;8.30;99.90;;;;;;5108124;28;20046;-73
2023/01/12 02:39:22;;;;;;;11.10;2.10;;;8.30;99.90;;;;;;5107884;28;20426;-72
2023/01/12 02:45:10;;;;;;;10.35;3.45;;;8.30;99.90;;;;;;5102916;28;20034;-72
2023/01/12 02:47:53;;;;;;;7.82;2.83;;;8.30;99.90;;;;;;5104103;28;20119;-72
2023/01/12 02:50:33;;;;;;;13.52;2.97;;;8.30;99.90;;;;;;5104099;28;20396;-72
2023/01/12 02:53:05;;;;;;;7.32;2.40;;;8.30;99.90;;;;;;5071891;28;20495;-72
2023/01/12 02:55:33;;;;;;;13.82;2.55;;;8.30;99.90;;;;;;5083183;28;20062;-72
2023/01/12 02:58:01;;;;;;;6.90;2.28;;;8.20;99.90;;;;;;5086659;28;20062;-72
2023/01/12 03:00:28;;;;;;;8.25;2.13;;;8.20;99.90;;;;;;5105672;28;20028;-71
2023/01/12 03:02:56;;;;;;;11.82;2.63;;;8.30;99.90;;;;;;5106098;28;20043;-71
2023/01/12 03:05:21;;;;;;;9.95;2.50;;;8.30;99.90;;;;;;5083049;28;20026;-71
2023/01/12 03:07:57;;;;;;;8.68;2.47;;;8.20;99.90;;;;;;5103479;28;20028;-71
2023/01/12 03:10:43;;;;;;;8.25;2.38;;;8.20;99.90;;;;;;5086005;28;20020;-71
2023/01/12 03:13:14;;;;;;;6.53;1.90;;;8.20;99.90;;;;;;5106114;28;20028;-71
2023/01/12 03:15:54;;;;;;;8.45;2.40;;;8.20;99.90;;;;;;5084703;28;20039;-71
2023/01/12 03:18:47;;;;;;;6.15;2.13;;;8.10;99.90;;;;;;5105244;28;20031;-72
2023/01/12 03:21:25;;;;;;;8.75;2.33;;;8.10;99.90;;;;;;5102910;28;21936;-71
2023/01/12 03:24:17;;;;;;;10.38;2.85;;;8.10;99.90;;;;;;5101940;28;20028;-71
2023/01/12 03:26:49;;;;;;;10.75;2.45;;;8.00;99.90;;;;;;5094828;28;20043;-71
2023/01/12 03:29:26;;;;;;;11.38;2.08;;;8.00;99.90;;;;;;5068413;28;20626;-71
2023/01/12 03:31:53;;;;;;;6.03;2.10;;;8.00;99.90;;;;;;5105382;28;20059;-71
2023/01/12 03:34:19;;;;;;;7.15;1.35;;;8.10;99.90;;;;;;5107485;28;20124;-72
2023/01/12 03:36:50;;;;;;;5.50;1.83;;;8.10;99.90;;;;;;5091306;28;20094;-71
2023/01/12 03:39:35;;;;;;;8.35;1.55;;;8.10;99.90;;;;;;5105701;28;20709;-72
2023/01/12 03:42:19;;;;;;;8.48;1.85;;;8.10;99.90;;;;;;5109785;28;20031;-71
2023/01/12 03:45:26;;;;;;;8.45;1.77;;;8.10;99.90;;;;;;5107778;28;20035;-71
2023/01/12 03:48:24;;;;;;;8.80;1.65;;;8.10;99.90;;;;;;5088144;28;20054;-71
2023/01/12 03:51:02;;;;;;;9.63;1.65;;;8.10;99.90;;;;;;5005454;28;20039;-71
2023/01/12 03:53:30;;;;;;;4.93;1.50;;;8.10;99.90;;;;;;5109567;28;20119;-71
2023/01/12 03:56:01;;;;;;;8.60;2.35;;;8.10;99.90;;;;;;5108068;28;20115;-71
2023/01/12 03:58:27;;;;;;;3.88;1.35;;;8.10;99.90;;;;;;5108012;28;20460;-71
2023/01/12 04:00:53;;;;;;;6.32;1.95;;;8.00;99.90;;;;;;5082968;28;20027;-71
2023/01/12 04:03:19;;;;;;;7.93;2.38;;;8.10;99.90;;;;;;5086241;28;20031;-71
2023/01/12 04:05:45;;;;;;;8.38;2.33;;;8.10;99.90;;;;;;5105066;28;20114;-71
2023/01/12 04:08:14;;;;;;;7.32;2.72;;;8.10;99.90;;;;;;5087658;28;20028;-72
2023/01/12 04:10:40;;;;;;;7.70;2.17;;;8.10;99.90;;;;;;5106055;28;20483;-72
2023/01/12 04:13:06;;;;;;;7.20;1.90;;;8.10;99.90;;;;;;5107198;28;20049;-72
2023/01/12 04:15:36;;;;;;;7.05;1.95;;;8.10;99.90;;;;;;5103066;27;20050;-72
2023/01/12 04:18:03;;;;;;;10.25;3.00;;;8.10;99.90;;;;;;5088486;28;20034;-74
2023/01/12 04:20:29;;;;;;;9.73;2.30;;;8.10;99.90;;;;;;5112177;28;20028;-74
2023/01/12 04:22:54;;;;;;;7.85;2.70;;;8.00;99.90;;;;;;5110931;28;20026;-74
2023/01/12 04:25:22;;;;;;;11.20;3.03;;;8.10;99.90;;;;;;5089694;28;20509;-74
2023/01/12 04:27:49;;;;;;;11.40;3.05;;;8.10;99.90;;;;;;5108733;28;20039;-74
2023/01/12 04:30:17;;;;;;;10.77;2.53;;;8.00;99.90;;;;;;5087783;28;20027;-74
2023/01/12 04:32:44;;;;;;;22.58;3.20;;;8.00;99.90;;;;;;5089087;28;20534;-74
2023/01/12 04:35:11;;;;;;;7.07;2.45;;;8.00;99.90;;;;;;5105667;28;20038;-74
2023/01/12 04:37:37;;;;;;;13.55;3.10;;;8.00;99.90;;;;;;5088401;28;20028;-74
2023/01/12 04:40:05;;;;;;;11.75;2.88;;;8.00;99.90;;;;;;5071018;28;20026;-72
2023/01/12 04:45:16;;;;;;;9.40;2.67;;;8.10;99.90;;;;;;5099348;28;20030;-72
2023/01/12 04:47:41;;;;;;;12.02;3.40;;;8.00;99.90;;;;;;5105609;28;20065;-72
2023/01/12 04:50:08;;;;;;;9.20;2.80;;;8.00;99.90;;;;;;5107702;28;20530;-72
2023/01/12 04:52:34;;;;;;;10.15;2.78;;;8.00;99.90;;;;;;5106290;28;20081;-72
2023/01/12 04:55:00;;;;;;;10.07;2.50;;;8.10;99.90;;;;;;5106296;28;20027;-72
2023/01/12 04:57:26;;;;;;;10.80;2.35;;;8.10;99.90;;;;;;5108853;28;20501;-72
2023/01/12 04:59:51;;;;;;;13.10;2.97;;;8.00;99.90;;;;;;5105869;28;20114;-72
2023/01/12 05:02:17;;;;;;;9.82;2.80;;;8.10;99.90;;;;;;5105892;28;20023;-71
2023/01/12 05:04:45;;;;;;;11.30;2.55;;;8.10;99.90;;;;;;5072450;28;20089;-71
2023/01/12 05:07:10;;;;;;;12.00;2.85;;;8.10;99.90;;;;;;5088319;28;20032;-72
2023/01/12 05:12:21;;;;;;;7.15;2.70;;;8.20;99.90;;;;;;5106417;28;20134;-71
2023/01/12 05:14:48;;;;;;;7.75;2.78;;;8.20;99.90;;;;;;5104472;28;20126;-71
2023/01/12 05:17:13;;;;;;;8.63;3.40;;;8.20;99.90;;;;;;5096947;28;20142;-71
2023/01/12 05:19:39;;;;;;;11.05;3.47;;;8.10;99.90;;;;;;5087975;28;20115;-71
2023/01/12 05:22:05;;;;;;;8.20;3.13;;;8.10;99.90;;;;;;5106292;28;20483;-72
2023/01/12 05:24:31;;;;;;;9.20;3.20;;;8.10;99.90;;;;;;5088598;28;20107;-71
2023/01/12 05:26:57;;;;;;;10.80;3.00;;;8.10;99.90;;;;;;5087211;28;20032;-71
2023/01/12 05:29:22;;;;;;;7.70;2.83;;;8.10;99.90;;;;;;5085223;28;20038;-71
2023/01/12 05:31:48;;;;;;;8.35;3.30;;;8.10;99.90;;;;;;5102938;28;20032;-72
2023/01/12 05:34:18;;;;;;;7.60;3.08;;;8.10;99.90;;;;;;5088101;28;20059;-72
2023/01/12 05:36:44;;;;;;;11.23;2.80;;;8.10;99.90;;;;;;5105457;28;20073;-72
2023/01/12 05:39:10;;;;;;;8.02;3.03;;;8.10;99.90;;;;;;5105933;28;20054;-72
2023/01/12 05:41:36;;;;;;;6.80;2.42;;;8.10;99.90;;;;;;5086220;28;20020;-71
2023/01/12 05:44:02;;;;;;;6.60;3.13;;;8.10;99.90;;;;;;5090202;28;20050;-72
2023/01/12 05:46:32;;;;;;;11.93;3.13;;;8.10;99.90;;;;;;5071070;28;20019;-72
2023/01/12 05:48:58;;;;;;;7.78;3.60;;;8.00;99.90;;;;;;5105366;28;20499;-72
2023/01/12 05:51:25;;;;;;;8.60;2.88;;;8.00;99.90;;;;;;5087129;28;20042;-71
2023/01/12 05:53:51;;;;;;;10.73;3.05;;;8.10;99.90;;;;;;5077501;28;20016;-72
2023/01/12 05:56:26;;;;;;;9.52;3.20;;;8.10;99.90;;;;;;5089791;28;20140;-72
2023/01/12 05:58:54;;;;;;;7.25;2.90;;;8.10;99.90;;;;;;5083637;28;20030;-72
2023/01/12 06:01:20;;;;;;;12.50;3.42;;;8.10;99.90;;;;;;5101745;28;20488;-72
2023/01/12 06:03:51;;;;;;;7.35;2.80;;;8.10;99.90;;;;;;5089081;28;20024;-72
2023/01/12 06:06:18;;;;;;;10.90;3.20;;;8.00;99.90;;;;;;5101604;28;20034;-72
2023/01/12 06:08:45;;;;;;;7.57;2.80;;;8.00;99.90;;;;;;5102396;28;20416;-71
2023/01/12 06:13:55;;;;;;;9.93;2.80;;;8.00;99.90;;;;;;5084979;28;20103;-71
2023/01/12 06:13:57;;;;;;;6.82;3.00;;;8.10;99.90;;;;;;5102364;28;20032;-71
2023/01/12 06:16:24;;;;;;;6.88;2.38;;;8.10;99.90;;;;;;5085337;28;20073;-71
2023/01/12 06:18:49;;;;;;;7.20;2.83;;;8.00;99.90;;;;;;5102193;28;20023;-71
2023/01/12 06:21:15;;;;;;;5.13;2.58;;;8.00;99.90;;;;;;5100619;28;20024;-71
2023/01/12 06:23:41;;;;;;;8.23;2.85;;;8.10;99.90;;;;;;5103491;28;20073;-71
2023/01/12 06:26:07;;;;;;;5.03;2.70;;;8.10;99.90;;;;;;5098157;28;20106;-71
2023/01/12 06:28:38;;;;;;;5.75;3.00;;;8.10;99.90;;;;;;5087873;28;20092;-71
2023/01/12 06:31:06;;;;;;;8.38;3.63;;;8.10;99.90;;;;;;5067878;28;20032;-71
2023/01/12 06:33:32;;;;;;;7.05;3.20;;;8.10;99.90;;;;;;5104238;28;20026;-71
2023/01/12 06:35:58;;;;;;;6.55;3.65;;;8.10;99.90;;;;;;5066788;28;20032;-70
2023/01/12 06:38:26;;;;;;;7.32;3.40;;;8.10;99.90;;;;;;5070640;28;20034;-71
2023/01/12 06:40:52;;;;;;;8.57;3.70;;;8.10;99.90;;;;;;5105454;28;20047;-71
2023/01/12 06:43:18;;;;;;;7.15;3.53;;;8.10;99.90;;;;;;5085692;28;20020;-71
2023/01/12 06:45:44;;;;;;;7.20;3.67;;;8.20;99.90;;;;;;5081702;28;20062;-71
2023/01/12 06:48:10;;;;;;;8.00;3.80;;;8.20;99.90;;;;;;5082995;28;20064;-71
2023/01/12 06:50:37;;;;;;;5.68;3.15;;;8.20;99.90;;;;;;5102334;28;20027;-71
2023/01/12 06:53:05;;;;;;;8.32;3.78;;;8.10;99.90;;;;;;5086019;28;20023;-70
2023/01/12 06:55:31;;;;;;;8.90;4.45;;;8.20;99.90;;;;;;5099214;28;20027;-70
2023/01/12 06:58:01;;;;;;;7.82;3.63;;;8.20;99.90;;;;;;5076524;28;20170;-71
2023/01/12 07:00:28;;;;;;;7.65;3.92;;;8.20;99.90;;;;;;5067419;28;21489;-71
2023/01/12 07:02:54;;;;;;;6.35;3.97;;;8.20;99.90;;;;;;5084038;28;20072;-71
2023/01/12 07:05:20;;;;;;;6.85;4.20;;;8.20;99.90;;;;;;5102453;28;20108;-71
2023/01/12 07:07:46;;;;;;;9.38;4.00;;;8.20;99.90;;;;;;5092451;28;20089;-71
2023/01/12 07:10:12;;;;;;;9.82;4.95;;;8.20;99.90;;;;;;5088823;28;20494;-71
2023/01/12 07:12:38;;;;;;;6.68;4.10;;;8.10;99.90;;;;;;5108927;28;20043;-74
2023/01/12 07:15:04;;;;;;;7.93;4.38;;;8.20;99.90;;;;;;5108428;28;20027;-71
2023/01/12 07:17:30;;;;;;;7.68;4.30;;;8.20;99.90;;;;;;5075148;28;20034;-72
2023/01/12 07:19:58;;;;;;;10.73;4.30;;;8.10;99.90;;;;;;5091433;28;20576;-71
2023/01/12 07:22:25;;;;;;;7.43;4.38;;;8.20;99.90;;;;;;5110176;28;20081;-71
2023/01/12 07:24:51;;;;;;;6.93;3.92;;;8.20;99.90;;;;;;5106726;28;20118;-72
2023/01/12 07:27:17;;;;;;;6.30;3.55;;;8.20;99.90;;;;;;5106949;28;20118;-71
2023/01/12 07:29:45;;;;;;;11.23;3.65;;;8.20;99.90;;;;;;5084684;28;20063;-71
2023/01/12 07:32:11;;;;;;;6.97;3.38;;;8.20;99.90;;;;;;5086919;28;20046;-71
2023/01/12 07:34:37;;;;;;;7.65;3.55;;;8.20;99.90;;;;;;5108219;28;20023;-72
2023/01/12 07:37:02;;;;;;;5.70;3.17;;;8.20;99.90;;;;;;5084927;28;20058;-72
2023/01/12 07:39:28;;;;;;;7.15;3.67;;;8.20;99.90;;;;;;5087978;28;20455;-72
2023/01/12 07:44:39;;;;;;;6.63;3.13;;;8.20;99.90;;;;;;5115117;28;20054;-72
2023/01/12 07:47:04;;;;;;;5.72;3.35;;;8.20;99.90;;;;;;5090085;28;20043;-72
2023/01/12 07:49:30;;;;;;;8.82;3.20;;;8.20;99.90;;;;;;5110264;28;20046;-72
2023/01/12 07:51:56;;;;;;;8.45;3.60;;;8.20;99.90;;;;;;5103772;28;20055;-72
2023/01/12 07:54:22;;;;;;;4.40;3.10;;;8.30;99.90;;;;;;5068583;28;20039;-72
2023/01/12 07:56:48;;;;;;;4.43;2.50;;;8.20;99.90;;;;;;5071313;28;20054;-72
2023/01/12 07:59:13;;;;;;;5.57;2.95;;;8.30;99.90;;;;;;5110529;27;20120;-72
2023/01/12 08:01:39;;;;;;;5.72;2.85;;;8.30;99.90;;;;;;5097974;28;20501;-72
2023/01/12 08:04:06;;;;;;;5.35;2.50;;;8.30;99.90;;;;;;5082684;28;20024;-72
2023/01/12 08:06:33;;;;;;;4.95;2.53;;;8.20;99.90;;;;;;5088679;28;20043;-72
2023/01/12 08:08:58;;;;;;;4.82;2.10;;;8.20;99.90;;;;;;5109257;28;20024;-72
2023/01/12 08:11:25;;;;;;;4.78;2.13;;;8.20;99.90;;;;;;5104775;28;20027;-72
2023/01/12 08:13:58;;;;;;;4.50;1.30;;;8.20;99.90;;;;;;5106963;27;20102;-72
2023/01/12 08:16:39;;;;;;;2.67;1.33;;;8.20;99.90;;;;;;5088528;28;20032;-72
2023/01/12 08:19:16;;;;;;;2.55;1.40;;;8.10;99.90;;;;;;5107814;28;20423;-72
2023/01/12 08:21:51;;;;;;;3.25;1.40;;;8.10;99.90;;;;;;5088564;28;20030;-72
2023/01/12 08:24:23;;;;;;;4.22;1.23;;;8.00;99.90;;;;;;5069520;28;20551;-72
2023/01/12 08:26:52;;;;;;;2.95;1.23;;;8.10;99.90;;;;;;5087688;28;20144;-72
2023/01/12 08:29:30;;;;;;;2.58;1.38;;;8.00;99.90;;;;;;5085711;28;20023;-72
2023/01/12 08:31:58;;;;;;;2.95;1.13;;;8.00;99.90;;;;;;5107251;28;20111;-72
2023/01/12 08:34:26;;;;;;;2.83;1.45;;;8.00;99.90;;;;;;5104358;28;20023;-72
2023/01/12 08:36:52;;;;;;;1.98;0.88;;;8.00;99.90;;;;;;5073827;28;20035;-72
2023/01/12 08:39:18;;;;;;;3.50;1.10;;;8.00;99.90;;;;;;5091329;28;20510;-72
2023/01/12 08:41:43;;;;;;;3.40;1.20;;;8.10;99.90;;;;;;5107335;28;20055;-72
2023/01/12 08:44:09;;;;;;;4.22;1.50;;;8.00;99.90;;;;;;5104664;28;20058;-72
2023/01/12 08:46:45;;;;;;;3.13;1.17;;;8.00;99.90;;;;;;5089948;28;20078;-72
2023/01/12 08:49:12;;;;;;;3.10;1.13;;;8.00;99.90;;;;;;5108218;28;20034;-72
2023/01/12 08:51:39;;;;;;;2.25;1.10;;;8.10;99.90;;;;;;5108158;28;20027;-72
2023/01/12 08:54:08;;;;;;;3.28;1.27;;;8.10;99.90;;;;;;5090585;28;20027;-72
2023/01/12 08:56:34;;;;;;;3.45;1.13;;;8.10;99.90;;;;;;5105281;28;20502;-72
2023/01/12 08:59:01;;;;;;;3.25;1.40;;;8.10;99.90;;;;;;5085462;28;20027;-78
2023/01/12 09:01:27;;;;;;;3.90;1.52;;;8.10;99.90;;;;;;5080095;28;20039;-72
2023/01/12 09:03:55;;;;;;;3.60;1.30;;;8.10;99.90;;;;;;5104201;28;20027;-72
2023/01/12 09:06:27;;;;;;;4.70;1.08;;;8.10;99.90;;;;;;5103273;28;20110;-72
2023/01/12 09:08:56;;;;;;;3.05;1.10;;;8.10;99.90;;;;;;5088398;28;20027;-72
2023/01/12 09:11:23;;;;;;;3.60;1.15;;;8.20;99.90;;;;;;5102929;28;20038;-72
2023/01/12 09:13:49;;;;;;;2.53;1.25;;;8.20;99.90;;;;;;5102042;28;20038;-73
2023/01/12 09:16:16;;;;;;;3.75;1.20;;;8.20;99.90;;;;;;5106854;28;20067;-72
2023/01/12 09:18:42;;;;;;;3.13;1.23;;;8.20;99.90;;;;;;5107042;28;20031;-72
2023/01/12 09:21:11;;;;;;;4.10;1.42;;;8.20;99.90;;;;;;5106502;28;20403;-72
2023/01/12 09:23:37;;;;;;;3.13;1.40;;;8.20;99.90;;;;;;5087477;28;20107;-73
2023/01/12 09:26:09;;;;;;;4.22;1.50;;;8.20;99.90;;;;;;5084848;28;20030;-72
2023/01/12 09:28:35;;;;;;;3.13;1.50;;;8.20;99.90;;;;;;5110962;28;20330;-72
2023/01/12 09:31:02;;;;;;;2.92;1.50;;;8.20;99.90;;;;;;5104684;28;20038;-73
2023/01/12 09:33:29;;;;;;;4.68;1.33;;;8.20;99.90;;;;;;5103107;28;20112;-73
2023/01/12 09:36:02;;;;;;;1.95;1.20;;;8.30;99.90;;;;;;5105846;28;20031;-73
2023/01/12 09:38:28;;;;;;;2.15;1.02;;;8.30;99.90;;;;;;5095434;28;20224;-74
2023/01/12 09:41:00;;;;;;;4.18;1.50;;;8.30;99.90;;;;;;5083108;28;20399;-71
2023/01/12 09:49:24;;;;;;;1.13;0.80;;;8.40;99.90;;;;;;5102441;28;20088;-72
2023/01/12 09:52:15;;;;;;;1.55;0.77;;;8.40;99.90;;;;;;5105035;28;20097;-72
2023/01/12 09:54:44;;;;;;;1.77;1.00;;;8.50;99.90;;;;;;5101816;28;20032;-72
2023/01/12 09:57:33;;;;;;;1.75;0.90;;;8.50;99.90;;;;;;5105817;28;20102;-73
2023/01/12 10:00:10;;;;;;;4.65;0.80;;;8.60;99.90;;;;;;5102837;28;20123;-73
2023/01/12 10:02:40;;;;;;;2.30;0.90;;;8.60;99.90;;;;;;5085863;28;20042;-72
2023/01/12 10:05:13;;;;;;;1.73;0.95;;;8.70;99.90;;;;;;5086908;28;20024;-72
2023/01/12 10:07:39;;;;;;;3.35;1.00;;;8.70;99.90;;;;;;5086015;28;20027;-72
2023/01/12 10:10:05;;;;;;;1.75;0.90;;;8.70;99.90;;;;;;5086087;28;20031;-72
2023/01/12 10:12:40;;;;;;;3.80;1.40;;;8.70;99.90;;;;;;5105958;28;20034;-72
2023/01/12 10:15:34;;;;;;;1.02;0.85;;;8.70;99.90;;;;;;5098639;27;20084;-72
2023/01/12 10:18:07;;;;;;;3.30;1.00;;;8.60;99.90;;;;;;5083145;28;20028;-72
2023/01/12 10:20:43;;;;;;;1.10;1.00;;;8.70;99.90;;;;;;5103142;28;20023;-73
2023/01/12 10:23:17;;;;;;;1.83;0.90;;;8.70;99.90;;;;;;5087697;28;20104;-75
2023/01/12 10:26:03;;;;;;;2.20;1.00;;;8.70;99.90;;;;;;5085314;28;20037;-73
2023/01/12 10:28:32;;;;;;;1.65;0.80;;;8.80;99.90;;;;;;5106043;28;20057;-73
2023/01/12 10:30:59;;;;;;;2.22;1.10;;;8.80;99.90;;;;;;5102772;28;20085;-74
2023/01/12 10:33:28;;;;;;;2.05;1.08;;;8.90;99.90;;;;;;5083927;28;20318;-75
2023/01/12 10:35:59;;;;;;;1.15;0.80;;;8.80;99.90;;;;;;5080855;28;20023;-73
2023/01/12 10:38:28;;;;;;;1.92;0.80;;;8.80;99.90;;;;;;5085093;28;20050;-73
2023/01/12 10:41:22;;;;;;;2.60;1.10;;;8.80;99.90;;;;;;5109172;28;20103;-73
2023/01/12 10:43:59;;;;;;;3.85;1.42;;;8.80;99.90;;;;;;5074309;28;20055;-73
2023/01/12 10:46:30;;;;;;;2.25;1.13;;;8.90;99.90;;;;;;5107576;28;20074;-73
2023/01/12 10:49:24;;;;;;;1.98;1.05;;;8.90;99.90;;;;;;5090833;28;20081;-73
2023/01/12 10:51:52;;;;;;;1.20;1.00;;;8.90;99.90;;;;;;5086803;28;20028;-72
2023/01/12 10:54:22;;;;;;;1.00;0.70;;;8.90;99.90;;;;;;5089093;28;20552;-72
2023/01/12 10:56:59;;;;;;;1.73;0.90;;;9.00;99.90;;;;;;5092383;28;20027;-72
2023/01/12 10:59:28;;;;;;;2.30;0.80;;;9.00;99.90;;;;;;5084164;28;21894;-72
2023/01/12 11:02:07;;;;;;;2.30;0.95;;;9.00;99.90;;;;;;5064313;28;20498;-72
2023/01/12 11:04:43;;;;;;;4.55;1.17;;;9.00;99.90;;;;;;5091536;28;20496;-73
2023/01/12 11:07:13;;;;;;;1.88;1.00;;;9.10;99.90;;;;;;5099388;28;20036;-74
2023/01/12 11:09:41;;;;;;;2.85;1.00;;;9.10;99.90;;;;;;5098598;28;20031;-74
2023/01/12 11:12:18;;;;;;;2.33;0.98;;;9.10;99.90;;;;;;5091498;28;20110;-73
2023/01/12 11:15:00;;;;;;;1.20;0.90;;;9.10;99.90;;;;;;5090591;28;20524;-72
2023/01/12 11:20:38;;;;;;;1.92;0.80;;;9.20;99.90;;;;;;5107730;28;20024;-73
2023/01/12 11:23:16;;;;;;;2.17;0.90;;;9.20;99.90;;;;;;5107399;28;20380;-73
2023/01/12 11:25:45;;;;;;;2.30;0.85;;;9.30;99.90;;;;;;5084748;28;20119;-72
2023/01/12 11:28:19;;;;;;;2.42;0.90;;;9.30;99.90;;;;;;5106741;28;20027;-73
2023/01/12 11:30:56;;;;;;;3.42;0.75;;;9.30;99.90;;;;;;5107076;28;20039;-73
2023/01/12 11:33:32;;;;;;;4.90;0.88;;;9.40;99.90;;;;;;5091705;28;20121;-74
2023/01/12 11:36:00;;;;;;;2.05;0.68;;;9.40;99.90;;;;;;5075105;28;20085;-75
2023/01/12 11:38:35;;;;;;;1.50;0.93;;;9.40;99.90;;;;;;5089721;28;20027;-75
2023/01/12 11:41:06;;;;;;;1.10;0.70;;;9.40;99.90;;;;;;5090499;28;20153;-74
2023/01/12 11:43:49;;;;;;;3.28;0.82;;;9.40;99.90;;;;;;5088785;28;20507;-75
2023/01/12 11:46:33;;;;;;;1.65;0.88;;;9.40;99.90;;;;;;5114019;28;20039;-76
2023/01/12 11:49:17;;;;;;;2.55;0.68;;;9.40;99.90;;;;;;5095151;28;20051;-79
2023/01/12 11:51:48;;;;;;;3.25;1.02;;;9.40;99.90;;;;;;5108791;28;20225;-77
2023/01/12 11:54:16;;;;;;;1.10;0.90;;;9.40;99.90;;;;;;5089042;28;20035;-73
2023/01/12 11:56:53;;;;;;;1.02;0.73;;;9.40;99.90;;;;;;5091583;28;20031;-72
2023/01/12 11:59:43;;;;;;;2.45;0.80;;;9.40;99.90;;;;;;5104773;28;20043;-70
2023/01/12 12:02:20;;;;;;;1.77;0.90;;;9.40;99.90;;;;;;5084777;28;20030;-79
2023/01/12 12:05:05;;;;;;;1.70;1.10;;;9.40;99.90;;;;;;5104455;28;20058;-75
2023/01/12 12:07:34;;;;;;;1.83;0.88;;;9.50;99.90;;;;;;5091385;28;20035;-73
2023/01/12 12:10:22;;;;;;;1.52;0.80;;;9.50;99.90;;;;;;5099629;28;20890;-72
2023/01/12 12:13:13;;;;;;;3.50;0.80;;;9.50;99.90;;;;;;5098579;28;20050;-78
2023/01/12 12:16:11;;;;;;;1.55;0.80;;;9.50;99.90;;;;;;5101281;28;20077;-77
2023/01/12 12:19:10;;;;;;;2.67;0.90;;;9.50;99.90;;;;;;5089535;28;20036;-78
2023/01/12 12:21:53;;;;;;;2.13;1.00;;;9.50;99.90;;;;;;5108272;28;20028;-82
2023/01/12 12:24:36;;;;;;;1.42;0.80;;;9.50;99.90;;;;;;5085457;28;20018;-75
2023/01/12 12:27:07;;;;;;;3.47;1.00;;;9.60;99.90;;;;;;5070933;28;20028;-81
2023/01/12 12:30:19;;;;;;;1.77;1.00;;;9.60;99.90;;;;;;5068114;28;20043;-76
2023/01/12 12:33:26;;;;;;;3.10;1.15;;;10.00;99.90;;;;;;5090912;28;20020;-76
2023/01/12 12:36:08;;;;;;;3.55;1.25;;;9.80;99.90;;;;;;5018969;28;20087;-76
2023/01/12 12:38:38;;;;;;;3.00;1.40;;;9.70;99.90;;;;;;5096110;28;21321;-78
2023/01/12 12:47:08;;;;;;;3.03;1.65;;;9.80;99.90;;;;;;5104929;28;20437;-75
2023/01/12 12:49:37;;;;;;;4.45;1.90;;;9.80;99.90;;;;;;5106064;28;20052;-76
2023/01/12 12:52:03;;;;;;;3.10;1.70;;;9.70;99.90;;;;;;5104086;28;20035;-76
2023/01/12 12:54:30;;;;;;;3.25;2.00;;;9.80;99.90;;;;;;5109205;28;20042;-77
2023/01/12 12:56:57;;;;;;;4.80;2.17;;;9.80;99.90;;;;;;5117276;28;20016;-76
2023/01/12 12:59:31;;;;;;;2.50;1.90;;;9.80;99.90;;;;;;5105648;28;20407;-77
2023/01/12 13:02:03;;;;;;;4.15;1.85;;;9.70;99.90;;;;;;5101117;28;20479;-76
2023/01/12 13:04:41;;;;;;;6.13;1.65;;;9.80;99.90;;;;;;5101731;28;20626;-76
2023/01/12 13:07:14;;;;;;;2.88;1.38;;;9.80;99.90;;;;;;5102225;28;20086;-82
2023/01/12 13:09:40;;;;;;;2.97;1.20;;;9.90;99.90;;;;;;5106774;28;20027;-80
2023/01/12 13:12:06;;;;;;;6.70;1.33;;;9.90;99.90;;;;;;5090945;28;20039;-78
2023/01/12 13:14:40;;;;;;;5.38;1.40;;;9.90;99.90;;;;;;5103463;28;20873;-76
2023/01/12 13:17:18;;;;;;;2.38;1.00;;;10.00;99.90;;;;;;5087518;28;20078;-80
2023/01/12 13:20:09;;;;;;;3.90;1.05;;;10.10;99.90;;;;;;5103282;28;20043;-79
2023/01/12 13:22:42;;;;;;;3.70;1.90;;;10.10;99.90;;;;;;5106209;28;20037;-80
2023/01/12 13:25:23;;;;;;;4.40;0.90;;;10.30;99.90;;;;;;5087620;28;20507;-77
2023/01/12 13:28:18;;;;;;;7.80;1.50;;;10.20;99.90;;;;;;5101287;28;20372;-80
2023/01/12 13:30:49;;;;;;;6.35;1.20;;;10.30;99.90;;;;;;5102305;27;20058;-76
2023/01/12 13:33:28;;;;;;;6.35;1.00;;;10.20;99.90;;;;;;5105154;28;20122;-79
2023/01/12 13:36:07;;;;;;;9.75;1.50;;;10.20;99.90;;;;;;5105666;28;20082;-78
2023/01/12 13:38:33;;;;;;;6.28;1.35;;;10.20;99.90;;;;;;5100394;28;20034;-80
2023/01/12 13:44:08;;;;;;;4.57;1.70;;;10.20;99.90;;;;;;5105319;28;20023;-76
2023/01/12 13:47:09;;;;;;;77.43;34.58;;;10.20;99.90;;;;;;5101036;28;20020;-76
2023/01/12 13:49:55;;;;;;;87.93;48.60;;;10.30;99.90;;;;;;5105422;28;20031;-80
2023/01/12 13:52:26;;;;;;;11.68;6.78;;;10.30;99.90;;;;;;5106238;28;20032;-79
2023/01/12 13:54:54;;;;;;;8.82;1.60;;;10.40;99.90;;;;;;5118353;27;20020;-82
2023/01/12 13:57:29;;;;;;;9.50;1.65;;;10.40;99.90;;;;;;5105168;28;20036;-76